sensor_id;sensor_type;location;lat;lon;timestamp;P1;durP1;ratioP1;P2;durP2;ratioP2
43678;SDS011;29279;50.858;4.392;2022-09-03T00:00:59;11.27;;;3.30;;
43678;SDS011;29279;50.858;4.392;2022-09-03T00:03:36;6.22;;;2.50;;
43678;SDS011;29279;50.858;4.392;2022-09-03T00:08:50;7.30;;;2.45;;
43678;SDS011;29279;50.858;4.392;2022-09-03T00:11:42;5.38;;;2.13;;
43678;SDS011;29279;50.858;4.392;2022-09-03T00:14:33;5.80;;;2.00;;
43678;SDS011;29279;50.858;4.392;2022-09-03T00:17:08;4.80;;;1.85;;
43678;SDS011;29279;50.858;4.392;2022-09-03T00:19:43;2.58;;;1.75;;
43678;SDS011;29279;50.858;4.392;2022-09-03T00:22:23;5.78;;;1.63;;
43678;SDS011;29279;50.858;4.392;2022-09-03T00:24:53;8.30;;;1.92;;
43678;SDS011;29279;50.858;4.392;2022-09-03T00:27:24;11.90;;;2.05;;
43678;SDS011;29279;50.858;4.392;2022-09-03T00:29:54;3.13;;;1.75;;
43678;SDS011;29279;50.858;4.392;2022-09-03T00:32:26;3.47;;;2.00;;
43678;SDS011;29279;50.858;4.392;2022-09-03T00:35:15;6.55;;;1.95;;
43678;SDS011;29279;50.858;4.392;2022-09-03T00:37:44;6.30;;;2.30;;
43678;SDS011;29279;50.858;4.392;2022-09-03T00:40:15;7.45;;;2.10;;
43678;SDS011;29279;50.858;4.392;2022-09-03T00:42:55;2.75;;;1.50;;
43678;SDS011;29279;50.858;4.392;2022-09-03T00:45:36;6.57;;;2.10;;
43678;SDS011;29279;50.858;4.392;2022-09-03T00:48:22;5.75;;;1.60;;
43678;SDS011;29279;50.858;4.392;2022-09-03T00:56:33;6.40;;;1.98;;
43678;SDS011;29279;50.858;4.392;2022-09-03T00:59:21;7.20;;;1.63;;
43678;SDS011;29279;50.858;4.392;2022-09-03T01:07:44;6.93;;;1.55;;
43678;SDS011;29279;50.858;4.392;2022-09-03T01:10:29;3.13;;;1.73;;
43678;SDS011;29279;50.858;4.392;2022-09-03T01:13:30;7.20;;;1.60;;
43678;SDS011;29279;50.858;4.392;2022-09-03T01:21:22;6.57;;;1.90;;
43678;SDS011;29279;50.858;4.392;2022-09-03T01:32:25;4.13;;;1.70;;
43678;SDS011;29279;50.858;4.392;2022-09-03T01:35:16;13.60;;;2.38;;
43678;SDS011;29279;50.858;4.392;2022-09-03T01:40:28;5.03;;;2.20;;
43678;SDS011;29279;50.858;4.392;2022-09-03T01:51:10;8.32;;;2.70;;
43678;SDS011;29279;50.858;4.392;2022-09-03T01:56:42;8.60;;;2.70;;
43678;SDS011;29279;50.858;4.392;2022-09-03T01:59:30;7.30;;;2.38;;
43678;SDS011;29279;50.858;4.392;2022-09-03T02:02:01;6.35;;;2.42;;
43678;SDS011;29279;50.858;4.392;2022-09-03T02:04:33;7.68;;;2.65;;
43678;SDS011;29279;50.858;4.392;2022-09-03T02:06:59;13.98;;;2.88;;
43678;SDS011;29279;50.858;4.392;2022-09-03T02:09:26;4.30;;;2.55;;
43678;SDS011;29279;50.858;4.392;2022-09-03T02:11:54;4.18;;;2.47;;
43678;SDS011;29279;50.858;4.392;2022-09-03T02:14:25;8.90;;;3.13;;
43678;SDS011;29279;50.858;4.392;2022-09-03T02:16:54;7.32;;;2.97;;
43678;SDS011;29279;50.858;4.392;2022-09-03T02:19:25;8.07;;;3.30;;
43678;SDS011;29279;50.858;4.392;2022-09-03T02:21:52;12.65;;;3.42;;
43678;SDS011;29279;50.858;4.392;2022-09-03T02:24:20;7.93;;;3.70;;
43678;SDS011;29279;50.858;4.392;2022-09-03T02:26:47;12.10;;;4.30;;
43678;SDS011;29279;50.858;4.392;2022-09-03T02:29:14;11.68;;;4.15;;
43678;SDS011;29279;50.858;4.392;2022-09-03T02:31:41;8.18;;;4.25;;
43678;SDS011;29279;50.858;4.392;2022-09-03T02:34:07;12.38;;;5.03;;
43678;SDS011;29279;50.858;4.392;2022-09-03T02:36:34;8.20;;;4.93;;
43678;SDS011;29279;50.858;4.392;2022-09-03T02:39:03;9.60;;;5.65;;
43678;SDS011;29279;50.858;4.392;2022-09-03T02:41:30;9.32;;;5.65;;
43678;SDS011;29279;50.858;4.392;2022-09-03T02:44:04;9.85;;;5.45;;
43678;SDS011;29279;50.858;4.392;2022-09-03T02:46:40;14.52;;;7.47;;
43678;SDS011;29279;50.858;4.392;2022-09-03T02:49:08;14.35;;;7.53;;
43678;SDS011;29279;50.858;4.392;2022-09-03T02:51:36;9.77;;;7.40;;
43678;SDS011;29279;50.858;4.392;2022-09-03T02:54:04;18.48;;;7.15;;
43678;SDS011;29279;50.858;4.392;2022-09-03T02:56:30;12.25;;;6.38;;
43678;SDS011;29279;50.858;4.392;2022-09-03T02:58:56;11.90;;;5.93;;
43678;SDS011;29279;50.858;4.392;2022-09-03T03:01:22;16.58;;;6.40;;
43678;SDS011;29279;50.858;4.392;2022-09-03T03:03:48;9.80;;;6.30;;
43678;SDS011;29279;50.858;4.392;2022-09-03T03:06:14;8.35;;;5.60;;
43678;SDS011;29279;50.858;4.392;2022-09-03T03:08:40;13.68;;;6.35;;
43678;SDS011;29279;50.858;4.392;2022-09-03T03:11:08;16.50;;;6.40;;
43678;SDS011;29279;50.858;4.392;2022-09-03T03:13:33;11.82;;;6.40;;
43678;SDS011;29279;50.858;4.392;2022-09-03T03:16:00;15.55;;;6.68;;
43678;SDS011;29279;50.858;4.392;2022-09-03T03:18:30;12.20;;;6.75;;
43678;SDS011;29279;50.858;4.392;2022-09-03T03:20:56;11.93;;;5.75;;
43678;SDS011;29279;50.858;4.392;2022-09-03T03:23:22;8.90;;;5.38;;
43678;SDS011;29279;50.858;4.392;2022-09-03T03:25:48;11.45;;;5.00;;
43678;SDS011;29279;50.858;4.392;2022-09-03T03:28:13;8.73;;;4.82;;
43678;SDS011;29279;50.858;4.392;2022-09-03T03:30:39;16.13;;;5.78;;
43678;SDS011;29279;50.858;4.392;2022-09-03T03:33:07;11.25;;;4.82;;
43678;SDS011;29279;50.858;4.392;2022-09-03T03:35:35;10.57;;;5.20;;
43678;SDS011;29279;50.858;4.392;2022-09-03T03:38:01;11.10;;;5.13;;
43678;SDS011;29279;50.858;4.392;2022-09-03T03:40:28;9.48;;;4.80;;
43678;SDS011;29279;50.858;4.392;2022-09-03T03:42:56;6.95;;;4.43;;
43678;SDS011;29279;50.858;4.392;2022-09-03T03:45:22;6.18;;;3.63;;
43678;SDS011;29279;50.858;4.392;2022-09-03T03:47:47;6.95;;;3.97;;
43678;SDS011;29279;50.858;4.392;2022-09-03T03:50:13;7.50;;;3.42;;
43678;SDS011;29279;50.858;4.392;2022-09-03T03:52:40;5.43;;;3.33;;
43678;SDS011;29279;50.858;4.392;2022-09-03T03:55:07;5.85;;;2.97;;
43678;SDS011;29279;50.858;4.392;2022-09-03T03:57:33;6.13;;;3.42;;
43678;SDS011;29279;50.858;4.392;2022-09-03T04:00:00;5.25;;;3.50;;
43678;SDS011;29279;50.858;4.392;2022-09-03T04:02:26;7.65;;;3.60;;
43678;SDS011;29279;50.858;4.392;2022-09-03T04:04:51;7.00;;;3.65;;
43678;SDS011;29279;50.858;4.392;2022-09-03T04:07:17;7.90;;;3.72;;
43678;SDS011;29279;50.858;4.392;2022-09-03T04:09:43;6.82;;;3.42;;
43678;SDS011;29279;50.858;4.392;2022-09-03T04:12:09;6.03;;;3.33;;
43678;SDS011;29279;50.858;4.392;2022-09-03T04:14:34;7.30;;;3.08;;
43678;SDS011;29279;50.858;4.392;2022-09-03T04:17:00;4.95;;;2.50;;
43678;SDS011;29279;50.858;4.392;2022-09-03T04:19:27;3.10;;;2.75;;
43678;SDS011;29279;50.858;4.392;2022-09-03T04:21:54;4.45;;;3.00;;
43678;SDS011;29279;50.858;4.392;2022-09-03T04:24:20;4.55;;;2.75;;
43678;SDS011;29279;50.858;4.392;2022-09-03T04:26:46;6.65;;;2.80;;
43678;SDS011;29279;50.858;4.392;2022-09-03T04:29:14;5.38;;;3.08;;
43678;SDS011;29279;50.858;4.392;2022-09-03T04:31:40;7.63;;;2.85;;
43678;SDS011;29279;50.858;4.392;2022-09-03T04:34:25;6.68;;;3.30;;
43678;SDS011;29279;50.858;4.392;2022-09-03T04:36:51;7.45;;;3.45;;
43678;SDS011;29279;50.858;4.392;2022-09-03T04:39:17;7.22;;;3.22;;
43678;SDS011;29279;50.858;4.392;2022-09-03T04:41:43;8.57;;;4.40;;
43678;SDS011;29279;50.858;4.392;2022-09-03T04:44:08;4.80;;;3.88;;
43678;SDS011;29279;50.858;4.392;2022-09-03T04:46:34;4.97;;;3.65;;
43678;SDS011;29279;50.858;4.392;2022-09-03T04:49:00;7.78;;;3.78;;
43678;SDS011;29279;50.858;4.392;2022-09-03T04:51:26;4.13;;;3.70;;
43678;SDS011;29279;50.858;4.392;2022-09-03T04:53:55;6.03;;;3.40;;
43678;SDS011;29279;50.858;4.392;2022-09-03T04:56:26;7.22;;;3.60;;
43678;SDS011;29279;50.858;4.392;2022-09-03T04:58:57;7.30;;;4.03;;
43678;SDS011;29279;50.858;4.392;2022-09-03T05:01:26;5.47;;;3.03;;
43678;SDS011;29279;50.858;4.392;2022-09-03T05:03:56;5.13;;;3.20;;
43678;SDS011;29279;50.858;4.392;2022-09-03T05:06:22;6.00;;;3.55;;
43678;SDS011;29279;50.858;4.392;2022-09-03T05:08:50;7.43;;;3.00;;
43678;SDS011;29279;50.858;4.392;2022-09-03T05:11:17;4.78;;;3.42;;
43678;SDS011;29279;50.858;4.392;2022-09-03T05:13:45;4.47;;;3.40;;
43678;SDS011;29279;50.858;4.392;2022-09-03T05:16:13;3.67;;;2.70;;
43678;SDS011;29279;50.858;4.392;2022-09-03T05:18:38;8.27;;;2.95;;
43678;SDS011;29279;50.858;4.392;2022-09-03T05:21:06;4.68;;;2.95;;
43678;SDS011;29279;50.858;4.392;2022-09-03T05:23:41;6.47;;;3.30;;
43678;SDS011;29279;50.858;4.392;2022-09-03T05:26:27;7.05;;;3.35;;
43678;SDS011;29279;50.858;4.392;2022-09-03T05:28:55;5.43;;;3.10;;
43678;SDS011;29279;50.858;4.392;2022-09-03T05:31:23;5.93;;;2.95;;
43678;SDS011;29279;50.858;4.392;2022-09-03T05:33:52;3.33;;;3.03;;
43678;SDS011;29279;50.858;4.392;2022-09-03T05:36:22;5.00;;;3.58;;
43678;SDS011;29279;50.858;4.392;2022-09-03T05:38:49;8.43;;;3.95;;
43678;SDS011;29279;50.858;4.392;2022-09-03T05:41:18;6.43;;;3.47;;
43678;SDS011;29279;50.858;4.392;2022-09-03T05:43:48;7.00;;;4.32;;
43678;SDS011;29279;50.858;4.392;2022-09-03T05:46:17;8.02;;;4.00;;
43678;SDS011;29279;50.858;4.392;2022-09-03T05:48:44;5.43;;;3.30;;
43678;SDS011;29279;50.858;4.392;2022-09-03T05:51:10;8.15;;;3.38;;
43678;SDS011;29279;50.858;4.392;2022-09-03T05:53:40;5.53;;;3.67;;
43678;SDS011;29279;50.858;4.392;2022-09-03T05:56:11;7.32;;;3.67;;
43678;SDS011;29279;50.858;4.392;2022-09-03T05:58:51;5.22;;;3.20;;
43678;SDS011;29279;50.858;4.392;2022-09-03T06:01:23;6.75;;;3.22;;
43678;SDS011;29279;50.858;4.392;2022-09-03T06:03:57;6.20;;;2.97;;
43678;SDS011;29279;50.858;4.392;2022-09-03T06:06:27;6.18;;;3.58;;
43678;SDS011;29279;50.858;4.392;2022-09-03T06:08:55;7.00;;;3.17;;
43678;SDS011;29279;50.858;4.392;2022-09-03T06:11:23;4.75;;;3.70;;
43678;SDS011;29279;50.858;4.392;2022-09-03T06:13:56;7.60;;;3.47;;
43678;SDS011;29279;50.858;4.392;2022-09-03T06:16:25;6.85;;;3.70;;
43678;SDS011;29279;50.858;4.392;2022-09-03T06:18:52;6.05;;;3.63;;
43678;SDS011;29279;50.858;4.392;2022-09-03T06:21:18;7.32;;;3.70;;
43678;SDS011;29279;50.858;4.392;2022-09-03T06:23:47;8.52;;;3.65;;
43678;SDS011;29279;50.858;4.392;2022-09-03T06:26:15;8.70;;;3.83;;
43678;SDS011;29279;50.858;4.392;2022-09-03T06:28:43;5.60;;;3.50;;
43678;SDS011;29279;50.858;4.392;2022-09-03T06:31:10;6.40;;;3.60;;
43678;SDS011;29279;50.858;4.392;2022-09-03T06:33:38;9.07;;;3.70;;
43678;SDS011;29279;50.858;4.392;2022-09-03T06:36:05;7.40;;;3.13;;
43678;SDS011;29279;50.858;4.392;2022-09-03T06:38:32;8.25;;;3.83;;
43678;SDS011;29279;50.858;4.392;2022-09-03T06:41:00;7.78;;;4.15;;
43678;SDS011;29279;50.858;4.392;2022-09-03T06:43:32;6.07;;;3.78;;
43678;SDS011;29279;50.858;4.392;2022-09-03T06:46:00;6.47;;;4.00;;
43678;SDS011;29279;50.858;4.392;2022-09-03T06:48:29;8.88;;;4.22;;
43678;SDS011;29279;50.858;4.392;2022-09-03T06:50:57;8.40;;;3.78;;
43678;SDS011;29279;50.858;4.392;2022-09-03T06:53:30;4.57;;;3.40;;
43678;SDS011;29279;50.858;4.392;2022-09-03T06:56:02;5.22;;;3.42;;
43678;SDS011;29279;50.858;4.392;2022-09-03T06:58:31;7.03;;;3.72;;
43678;SDS011;29279;50.858;4.392;2022-09-03T07:01:07;4.90;;;3.17;;
43678;SDS011;29279;50.858;4.392;2022-09-03T07:03:43;5.18;;;3.58;;
43678;SDS011;29279;50.858;4.392;2022-09-03T07:06:11;4.82;;;2.90;;
43678;SDS011;29279;50.858;4.392;2022-09-03T07:08:41;8.95;;;3.08;;
43678;SDS011;29279;50.858;4.392;2022-09-03T07:11:09;5.28;;;2.83;;
43678;SDS011;29279;50.858;4.392;2022-09-03T07:13:38;4.03;;;2.25;;
43678;SDS011;29279;50.858;4.392;2022-09-03T07:16:13;5.22;;;3.15;;
43678;SDS011;29279;50.858;4.392;2022-09-03T07:18:44;8.05;;;2.97;;
43678;SDS011;29279;50.858;4.392;2022-09-03T07:21:14;10.35;;;3.05;;
43678;SDS011;29279;50.858;4.392;2022-09-03T07:23:44;8.40;;;3.63;;
43678;SDS011;29279;50.858;4.392;2022-09-03T07:26:14;7.32;;;3.10;;
43678;SDS011;29279;50.858;4.392;2022-09-03T07:28:44;5.47;;;3.15;;
43678;SDS011;29279;50.858;4.392;2022-09-03T07:31:12;4.72;;;2.83;;
43678;SDS011;29279;50.858;4.392;2022-09-03T07:33:46;6.60;;;2.78;;
43678;SDS011;29279;50.858;4.392;2022-09-03T07:36:13;6.68;;;2.80;;
43678;SDS011;29279;50.858;4.392;2022-09-03T07:38:41;4.82;;;3.00;;
43678;SDS011;29279;50.858;4.392;2022-09-03T07:41:09;11.45;;;2.75;;
43678;SDS011;29279;50.858;4.392;2022-09-03T07:43:36;7.82;;;2.90;;
43678;SDS011;29279;50.858;4.392;2022-09-03T07:46:20;4.25;;;3.00;;
43678;SDS011;29279;50.858;4.392;2022-09-03T07:48:48;3.80;;;2.42;;
43678;SDS011;29279;50.858;4.392;2022-09-03T07:51:16;5.05;;;2.75;;
43678;SDS011;29279;50.858;4.392;2022-09-03T07:53:44;6.47;;;2.72;;
43678;SDS011;29279;50.858;4.392;2022-09-03T07:56:11;7.15;;;2.58;;
43678;SDS011;29279;50.858;4.392;2022-09-03T07:58:37;5.88;;;2.50;;
43678;SDS011;29279;50.858;4.392;2022-09-03T08:01:10;6.45;;;3.03;;
43678;SDS011;29279;50.858;4.392;2022-09-03T08:03:36;6.38;;;3.00;;
43678;SDS011;29279;50.858;4.392;2022-09-03T08:06:05;10.77;;;2.85;;
43678;SDS011;29279;50.858;4.392;2022-09-03T08:08:31;9.52;;;3.38;;
43678;SDS011;29279;50.858;4.392;2022-09-03T08:11:07;6.95;;;2.88;;
43678;SDS011;29279;50.858;4.392;2022-09-03T08:13:53;6.80;;;2.92;;
43678;SDS011;29279;50.858;4.392;2022-09-03T08:16:26;8.15;;;3.33;;
43678;SDS011;29279;50.858;4.392;2022-09-03T08:18:56;8.00;;;3.25;;
43678;SDS011;29279;50.858;4.392;2022-09-03T08:21:22;8.90;;;2.72;;
43678;SDS011;29279;50.858;4.392;2022-09-03T08:23:50;7.60;;;3.25;;
43678;SDS011;29279;50.858;4.392;2022-09-03T08:26:17;7.28;;;3.10;;
43678;SDS011;29279;50.858;4.392;2022-09-03T08:28:44;7.82;;;3.28;;
43678;SDS011;29279;50.858;4.392;2022-09-03T08:31:11;8.80;;;4.13;;
43678;SDS011;29279;50.858;4.392;2022-09-03T08:33:39;7.85;;;3.30;;
43678;SDS011;29279;50.858;4.392;2022-09-03T08:38:42;6.90;;;3.63;;
43678;SDS011;29279;50.858;4.392;2022-09-03T08:41:14;6.95;;;3.65;;
43678;SDS011;29279;50.858;4.392;2022-09-03T08:49:13;5.43;;;3.72;;
43678;SDS011;29279;50.858;4.392;2022-09-03T08:51:45;8.77;;;4.53;;
43678;SDS011;29279;50.858;4.392;2022-09-03T08:54:12;8.55;;;3.60;;
43678;SDS011;29279;50.858;4.392;2022-09-03T08:56:40;12.95;;;4.60;;
43678;SDS011;29279;50.858;4.392;2022-09-03T08:59:07;9.77;;;5.18;;
43678;SDS011;29279;50.858;4.392;2022-09-03T09:01:42;14.88;;;5.35;;
43678;SDS011;29279;50.858;4.392;2022-09-03T09:07:07;7.43;;;4.38;;
43678;SDS011;29279;50.858;4.392;2022-09-03T09:25:06;10.10;;;4.85;;
43678;SDS011;29279;50.858;4.392;2022-09-03T09:27:43;7.40;;;4.53;;
43678;SDS011;29279;50.858;4.392;2022-09-03T09:30:27;7.45;;;4.65;;
43678;SDS011;29279;50.858;4.392;2022-09-03T09:32:54;8.82;;;5.40;;
43678;SDS011;29279;50.858;4.392;2022-09-03T09:35:20;16.15;;;5.53;;
43678;SDS011;29279;50.858;4.392;2022-09-03T09:37:50;11.32;;;5.40;;
43678;SDS011;29279;50.858;4.392;2022-09-03T09:40:22;8.93;;;4.57;;
43678;SDS011;29279;50.858;4.392;2022-09-03T09:43:03;14.55;;;5.35;;
43678;SDS011;29279;50.858;4.392;2022-09-03T09:45:35;6.10;;;4.55;;
43678;SDS011;29279;50.858;4.392;2022-09-03T09:48:07;6.55;;;4.72;;
43678;SDS011;29279;50.858;4.392;2022-09-03T09:54:00;8.07;;;5.00;;
43678;SDS011;29279;50.858;4.392;2022-09-03T09:56:28;15.50;;;5.13;;
43678;SDS011;29279;50.858;4.392;2022-09-03T09:59:15;7.35;;;5.07;;
43678;SDS011;29279;50.858;4.392;2022-09-03T10:01:43;9.18;;;5.18;;
43678;SDS011;29279;50.858;4.392;2022-09-03T10:04:27;8.57;;;5.50;;
43678;SDS011;29279;50.858;4.392;2022-09-03T10:06:56;12.43;;;5.53;;
43678;SDS011;29279;50.858;4.392;2022-09-03T10:09:29;8.07;;;5.55;;
43678;SDS011;29279;50.858;4.392;2022-09-03T10:14:36;8.35;;;5.45;;
43678;SDS011;29279;50.858;4.392;2022-09-03T10:17:29;9.35;;;4.88;;
43678;SDS011;29279;50.858;4.392;2022-09-03T10:20:11;13.70;;;5.72;;
43678;SDS011;29279;50.858;4.392;2022-09-03T10:25:42;8.57;;;5.30;;
43678;SDS011;29279;50.858;4.392;2022-09-03T10:28:14;7.82;;;4.70;;
43678;SDS011;29279;50.858;4.392;2022-09-03T10:30:55;10.85;;;5.40;;
43678;SDS011;29279;50.858;4.392;2022-09-03T10:33:43;10.07;;;4.80;;
43678;SDS011;29279;50.858;4.392;2022-09-03T10:36:22;14.82;;;5.38;;
43678;SDS011;29279;50.858;4.392;2022-09-03T10:38:53;9.98;;;5.25;;
43678;SDS011;29279;50.858;4.392;2022-09-03T10:56:12;7.75;;;5.10;;
43678;SDS011;29279;50.858;4.392;2022-09-03T11:04:25;10.65;;;5.30;;
43678;SDS011;29279;50.858;4.392;2022-09-03T11:07:02;9.85;;;4.78;;
43678;SDS011;29279;50.858;4.392;2022-09-03T11:09:35;8.80;;;5.20;;
43678;SDS011;29279;50.858;4.392;2022-09-03T11:12:37;8.40;;;4.93;;
43678;SDS011;29279;50.858;4.392;2022-09-03T11:15:33;10.65;;;5.25;;
43678;SDS011;29279;50.858;4.392;2022-09-03T11:20:39;6.70;;;4.50;;
43678;SDS011;29279;50.858;4.392;2022-09-03T11:23:07;10.95;;;4.68;;
43678;SDS011;29279;50.858;4.392;2022-09-03T11:25:40;8.63;;;4.50;;
43678;SDS011;29279;50.858;4.392;2022-09-03T11:28:15;9.10;;;5.07;;
43678;SDS011;29279;50.858;4.392;2022-09-03T11:33:42;7.65;;;5.10;;
43678;SDS011;29279;50.858;4.392;2022-09-03T11:36:22;13.60;;;5.72;;
43678;SDS011;29279;50.858;4.392;2022-09-03T11:38:56;9.38;;;4.63;;
43678;SDS011;29279;50.858;4.392;2022-09-03T11:41:25;5.88;;;4.13;;
43678;SDS011;29279;50.858;4.392;2022-09-03T11:43:52;15.02;;;4.68;;
43678;SDS011;29279;50.858;4.392;2022-09-03T11:54:44;5.80;;;3.67;;
43678;SDS011;29279;50.858;4.392;2022-09-03T11:59:35;5.88;;;3.85;;
43678;SDS011;29279;50.858;4.392;2022-09-03T12:02:03;6.38;;;4.00;;
43678;SDS011;29279;50.858;4.392;2022-09-03T12:18:02;6.85;;;4.82;;
43678;SDS011;29279;50.858;4.392;2022-09-03T12:20:44;6.13;;;4.65;;
43678;SDS011;29279;50.858;4.392;2022-09-03T12:23:24;10.48;;;5.35;;
43678;SDS011;29279;50.858;4.392;2022-09-03T12:25:52;12.05;;;5.45;;
43678;SDS011;29279;50.858;4.392;2022-09-03T12:28:19;8.70;;;5.65;;
43678;SDS011;29279;50.858;4.392;2022-09-03T12:30:47;8.48;;;5.18;;
43678;SDS011;29279;50.858;4.392;2022-09-03T12:33:17;10.13;;;4.80;;
43678;SDS011;29279;50.858;4.392;2022-09-03T12:36:07;5.72;;;4.30;;
43678;SDS011;29279;50.858;4.392;2022-09-03T12:38:33;11.68;;;4.10;;
43678;SDS011;29279;50.858;4.392;2022-09-03T12:40:59;8.88;;;5.38;;
43678;SDS011;29279;50.858;4.392;2022-09-03T12:43:28;9.10;;;5.00;;
43678;SDS011;29279;50.858;4.392;2022-09-03T12:45:54;9.30;;;4.70;;
43678;SDS011;29279;50.858;4.392;2022-09-03T12:48:20;8.82;;;4.50;;
43678;SDS011;29279;50.858;4.392;2022-09-03T12:50:46;10.77;;;4.85;;
43678;SDS011;29279;50.858;4.392;2022-09-03T12:53:24;12.25;;;4.63;;
43678;SDS011;29279;50.858;4.392;2022-09-03T12:55:54;6.10;;;4.32;;
43678;SDS011;29279;50.858;4.392;2022-09-03T12:58:24;5.50;;;3.58;;
43678;SDS011;29279;50.858;4.392;2022-09-03T13:01:10;5.18;;;3.35;;
43678;SDS011;29279;50.858;4.392;2022-09-03T13:03:43;9.43;;;3.80;;
43678;SDS011;29279;50.858;4.392;2022-09-03T13:06:20;6.03;;;3.70;;
43678;SDS011;29279;50.858;4.392;2022-09-03T13:08:50;5.22;;;3.35;;
43678;SDS011;29279;50.858;4.392;2022-09-03T13:11:21;5.65;;;3.35;;
43678;SDS011;29279;50.858;4.392;2022-09-03T13:14:21;5.65;;;3.15;;
43678;SDS011;29279;50.858;4.392;2022-09-03T13:21:53;7.65;;;3.70;;
43678;SDS011;29279;50.858;4.392;2022-09-03T13:30:04;4.93;;;3.13;;
43678;SDS011;29279;50.858;4.392;2022-09-03T13:42:55;4.43;;;3.33;;
43678;SDS011;29279;50.858;4.392;2022-09-03T13:45:40;7.10;;;3.65;;
43678;SDS011;29279;50.858;4.392;2022-09-03T13:48:23;4.93;;;2.90;;
43678;SDS011;29279;50.858;4.392;2022-09-03T13:51:27;4.00;;;2.67;;
43678;SDS011;29279;50.858;4.392;2022-09-03T14:07:33;2.80;;;2.13;;
43678;SDS011;29279;50.858;4.392;2022-09-03T14:16:10;2.70;;;2.00;;
43678;SDS011;29279;50.858;4.392;2022-09-03T14:18:58;5.30;;;2.08;;
43678;SDS011;29279;50.858;4.392;2022-09-03T14:27:26;4.70;;;1.90;;
43678;SDS011;29279;50.858;4.392;2022-09-03T14:29:58;5.05;;;1.70;;
43678;SDS011;29279;50.858;4.392;2022-09-03T14:35:34;2.55;;;1.73;;
43678;SDS011;29279;50.858;4.392;2022-09-03T14:49:20;7.13;;;2.42;;
43678;SDS011;29279;50.858;4.392;2022-09-03T15:00:14;6.53;;;4.20;;
43678;SDS011;29279;50.858;4.392;2022-09-03T15:11:51;8.85;;;4.38;;
43678;SDS011;29279;50.858;4.392;2022-09-03T15:14:34;9.85;;;3.67;;
43678;SDS011;29279;50.858;4.392;2022-09-03T15:17:39;6.87;;;3.90;;
43678;SDS011;29279;50.858;4.392;2022-09-03T15:20:24;12.95;;;4.22;;
43678;SDS011;29279;50.858;4.392;2022-09-03T15:23:08;3.97;;;3.38;;
43678;SDS011;29279;50.858;4.392;2022-09-03T15:31:37;7.78;;;4.28;;
43678;SDS011;29279;50.858;4.392;2022-09-03T15:36:37;9.27;;;5.70;;
43678;SDS011;29279;50.858;4.392;2022-09-03T15:39:11;9.15;;;4.75;;
43678;SDS011;29279;50.858;4.392;2022-09-03T15:44:15;7.85;;;4.47;;
43678;SDS011;29279;50.858;4.392;2022-09-03T15:46:49;6.80;;;4.38;;
43678;SDS011;29279;50.858;4.392;2022-09-03T15:52:07;8.27;;;5.03;;
43678;SDS011;29279;50.858;4.392;2022-09-03T15:55:04;6.93;;;3.22;;
43678;SDS011;29279;50.858;4.392;2022-09-03T15:57:36;6.72;;;3.38;;
43678;SDS011;29279;50.858;4.392;2022-09-03T16:00:33;5.05;;;3.35;;
43678;SDS011;29279;50.858;4.392;2022-09-03T16:03:15;4.55;;;3.58;;
43678;SDS011;29279;50.858;4.392;2022-09-03T16:06:02;5.30;;;3.55;;
43678;SDS011;29279;50.858;4.392;2022-09-03T16:14:02;7.28;;;3.97;;
43678;SDS011;29279;50.858;4.392;2022-09-03T16:22:19;7.80;;;4.18;;
43678;SDS011;29279;50.858;4.392;2022-09-03T16:24:51;7.30;;;3.58;;
43678;SDS011;29279;50.858;4.392;2022-09-03T16:27:24;7.60;;;3.90;;
43678;SDS011;29279;50.858;4.392;2022-09-03T16:30:41;6.00;;;4.07;;
43678;SDS011;29279;50.858;4.392;2022-09-03T16:36:18;4.65;;;3.83;;
43678;SDS011;29279;50.858;4.392;2022-09-03T16:42:23;9.40;;;3.55;;
43678;SDS011;29279;50.858;4.392;2022-09-03T16:44:58;7.05;;;4.20;;
43678;SDS011;29279;50.858;4.392;2022-09-03T16:47:34;10.00;;;4.38;;
43678;SDS011;29279;50.858;4.392;2022-09-03T17:00:46;5.05;;;3.30;;
43678;SDS011;29279;50.858;4.392;2022-09-03T17:03:38;5.75;;;3.00;;
43678;SDS011;29279;50.858;4.392;2022-09-03T17:06:14;5.20;;;3.28;;
43678;SDS011;29279;50.858;4.392;2022-09-03T17:09:20;3.40;;;2.30;;
43678;SDS011;29279;50.858;4.392;2022-09-03T17:20:11;5.05;;;3.33;;
43678;SDS011;29279;50.858;4.392;2022-09-03T17:25:34;8.18;;;5.40;;
43678;SDS011;29279;50.858;4.392;2022-09-03T17:28:07;6.28;;;3.78;;
43678;SDS011;29279;50.858;4.392;2022-09-03T17:30:54;6.60;;;4.00;;
43678;SDS011;29279;50.858;4.392;2022-09-03T17:36:23;7.60;;;4.88;;
43678;SDS011;29279;50.858;4.392;2022-09-03T17:39:15;6.00;;;4.07;;
43678;SDS011;29279;50.858;4.392;2022-09-03T17:42:16;7.15;;;4.93;;
43678;SDS011;29279;50.858;4.392;2022-09-03T17:45:00;5.88;;;4.07;;
43678;SDS011;29279;50.858;4.392;2022-09-03T17:50:33;10.10;;;4.60;;
43678;SDS011;29279;50.858;4.392;2022-09-03T17:53:24;7.38;;;4.40;;
43678;SDS011;29279;50.858;4.392;2022-09-03T17:56:03;8.95;;;4.80;;
43678;SDS011;29279;50.858;4.392;2022-09-03T18:01:14;13.93;;;5.95;;
43678;SDS011;29279;50.858;4.392;2022-09-03T18:14:10;12.55;;;4.70;;
43678;SDS011;29279;50.858;4.392;2022-09-03T18:21:56;11.10;;;5.78;;
43678;SDS011;29279;50.858;4.392;2022-09-03T18:24:53;9.63;;;5.53;;
43678;SDS011;29279;50.858;4.392;2022-09-03T18:27:42;9.70;;;5.18;;
43678;SDS011;29279;50.858;4.392;2022-09-03T18:30:29;13.35;;;7.00;;
43678;SDS011;29279;50.858;4.392;2022-09-03T18:33:18;10.07;;;5.45;;
43678;SDS011;29279;50.858;4.392;2022-09-03T18:36:06;7.88;;;4.28;;
43678;SDS011;29279;50.858;4.392;2022-09-03T18:38:51;6.65;;;4.07;;
43678;SDS011;29279;50.858;4.392;2022-09-03T18:51:39;8.18;;;3.70;;
43678;SDS011;29279;50.858;4.392;2022-09-03T18:54:37;7.40;;;3.03;;
43678;SDS011;29279;50.858;4.392;2022-09-03T19:00:40;3.38;;;2.17;;
43678;SDS011;29279;50.858;4.392;2022-09-03T19:07:07;3.75;;;2.60;;
43678;SDS011;29279;50.858;4.392;2022-09-03T19:22:10;7.82;;;2.78;;
43678;SDS011;29279;50.858;4.392;2022-09-03T19:25:03;5.50;;;3.45;;
43678;SDS011;29279;50.858;4.392;2022-09-03T19:28:36;5.43;;;3.67;;
43678;SDS011;29279;50.858;4.392;2022-09-03T19:37:12;10.25;;;4.60;;
43678;SDS011;29279;50.858;4.392;2022-09-03T19:55:35;5.20;;;3.47;;
43678;SDS011;29279;50.858;4.392;2022-09-03T19:58:25;5.47;;;3.80;;
43678;SDS011;29279;50.858;4.392;2022-09-03T20:01:14;11.27;;;4.13;;
43678;SDS011;29279;50.858;4.392;2022-09-03T20:04:02;5.88;;;3.70;;
43678;SDS011;29279;50.858;4.392;2022-09-03T20:06:54;7.30;;;3.40;;
43678;SDS011;29279;50.858;4.392;2022-09-03T20:09:40;6.80;;;3.67;;
43678;SDS011;29279;50.858;4.392;2022-09-03T20:12:26;5.07;;;3.78;;
43678;SDS011;29279;50.858;4.392;2022-09-03T20:15:01;5.72;;;4.10;;
43678;SDS011;29279;50.858;4.392;2022-09-03T20:25:57;15.77;;;5.93;;
43678;SDS011;29279;50.858;4.392;2022-09-03T20:28:32;8.32;;;4.78;;
43678;SDS011;29279;50.858;4.392;2022-09-03T20:31:40;9.88;;;5.72;;
43678;SDS011;29279;50.858;4.392;2022-09-03T20:34:05;11.77;;;5.88;;
43678;SDS011;29279;50.858;4.392;2022-09-03T20:50:14;7.60;;;5.15;;
43678;SDS011;29279;50.858;4.392;2022-09-03T20:53:27;8.38;;;5.20;;
43678;SDS011;29279;50.858;4.392;2022-09-03T20:58:45;10.75;;;5.20;;
43678;SDS011;29279;50.858;4.392;2022-09-03T21:01:44;6.72;;;4.70;;
43678;SDS011;29279;50.858;4.392;2022-09-03T21:04:41;11.68;;;5.80;;
43678;SDS011;29279;50.858;4.392;2022-09-03T21:07:36;8.15;;;5.18;;
43678;SDS011;29279;50.858;4.392;2022-09-03T21:13:41;7.70;;;5.03;;
43678;SDS011;29279;50.858;4.392;2022-09-03T21:27:11;4.60;;;3.85;;
43678;SDS011;29279;50.858;4.392;2022-09-03T21:32:57;6.57;;;3.50;;
43678;SDS011;29279;50.858;4.392;2022-09-03T21:38:21;5.43;;;3.13;;
43678;SDS011;29279;50.858;4.392;2022-09-03T21:40:58;6.45;;;3.60;;
43678;SDS011;29279;50.858;4.392;2022-09-03T21:46:30;5.53;;;3.53;;
43678;SDS011;29279;50.858;4.392;2022-09-03T21:49:09;7.38;;;3.65;;